X  Schlie├čen METAR Luftfahrt Wetterdaten     EDJA Memmingen Allgau Airport
Temperatur
5°C Temperatur
0°C Taupunkt
70% Feuchtigkeit



Wind
6 M/S
13 MPS
21 KM/S
11 KTS



210°
SSW
Aktuelle Wetterlage

Klar Klar
Luftdruck 1010.84 (hPa) - 29.85 (inHg)
Sichtweite 6 (Meile) - 9.7 (Km)
Flughafen
Flughafen Code EDJA

Position : Memmingen Allgau Airport
Entfernung: 50 (Km)

Metar:
EDJA 101920Z 21011KT CAVOK 05/00 Q1011

Zeit: 10-12-2023 20:20 CET